Time;durP1;ratioP1;P1;durP2;ratioP2;P2;SDS_P1;SDS_P2;PMS_P1;PMS_P2;Temp;Humidity;BMP_temperature;BMP_pressure;BME280_temperature;BME280_humidity;BME280_pressure;Samples;Min_cycle;Max_cycle;Signal;HPM_P1;HPM_P2
2022/03/31 00:00:45;;;;;;;;;;;;;;;17.26;58.40;98222.31;2107582;28;19912;-62
2022/03/31 00:01:45;;;;;;;;;;;;;;;17.27;58.39;98226.72;2107682;28;19919;-61
2022/03/31 00:02:45;;;;;;;;;;;;;;;17.27;58.48;98222.13;2107952;28;19954;-60
2022/03/31 00:03:47;;;;;;;;;;;;;;;17.27;58.64;98224.00;2107824;28;19912;-61
2022/03/31 00:04:47;;;;;;;;;;;;;;;17.28;58.47;98229.28;2107741;28;19957;-61
2022/03/31 00:05:51;;;;;;;;;;;;;;;17.27;58.41;98221.28;2107686;28;19912;-62
2022/03/31 00:06:51;;;;;;;;;;;;;;;17.28;58.40;98223.81;2107588;28;20006;-62
2022/03/31 00:07:57;;;;;;;;;;;;;;;17.28;58.61;98228.44;2107765;28;19916;-60
2022/03/31 00:08:57;;;;;;;;;;;;;;;17.29;58.43;98219.22;2107646;28;19920;-62
2022/03/31 00:09:58;;;;;;;;;;;;;;;17.29;58.63;98222.78;2107906;28;19967;-60
2022/03/31 00:10:58;;;;;;;;;;;;;;;17.30;58.48;98220.94;2107742;28;19913;-65
2022/03/31 00:11:59;;;;;;;;;;;;;;;17.29;58.52;98220.06;2107454;28;19916;-65
2022/03/31 00:13:00;;;;;;;;;;;;;;;17.30;58.37;98215.47;2107697;28;19912;-65
2022/03/31 00:14:00;;;;;;;;;;;;;;;17.31;58.54;98219.88;2107845;28;19912;-65
2022/03/31 00:15:00;;;;;;;;;;;;;;;17.31;58.30;98222.59;2107941;28;19923;-66
2022/03/31 00:16:01;;;;;;;;;;;;;;;17.31;58.20;98218.00;2108005;28;19951;-65
2022/03/31 00:17:01;;;;;;;;;;;;;;;17.31;58.41;98211.72;2107846;28;19931;-64
2022/03/31 00:18:03;;;;;;;;;;;;;;;17.31;58.41;98222.59;2107862;28;19923;-63
2022/03/31 00:19:04;;;;;;;;;;;;;;;17.31;58.44;98218.00;2098614;28;19920;-65
2022/03/31 00:20:05;;;;;;;;;;;;;;;17.33;58.24;98220.56;2099024;28;19913;-65
2022/03/31 00:21:05;;;;;;;;;;;;;;;17.31;58.32;98218.00;2107711;28;20351;-65
2022/03/31 00:22:05;;;;;;;;;;;;;;;17.32;58.36;98218.84;2098574;28;19968;-64
2022/03/31 00:23:06;;;;;;;;;;;;;;;17.32;58.16;98213.38;2098818;28;19964;-65
2022/03/31 00:24:07;;;;;;;;;;;;;;;17.33;58.33;98215.09;2092955;28;19913;-64
2022/03/31 00:25:08;;;;;;;;;;;;;;;17.33;58.04;98213.22;2082198;28;19913;-65
2022/03/31 00:26:09;;;;;;;;;;;;;;;17.33;58.02;98213.22;2094376;28;19953;-65
2022/03/31 00:27:09;;;;;;;;;;;;;;;17.35;58.07;98213.06;2107872;28;20382;-65
2022/03/31 00:28:09;;;;;;;;;;;;;;;17.35;58.32;98207.59;2107511;28;19912;-64
2022/03/31 00:29:10;;;;;;;;;;;;;;;17.35;58.03;98213.06;2107621;28;19960;-64
2022/03/31 00:30:11;;;;;;;;;;;;;;;17.35;57.99;98207.59;2107676;28;20289;-65
2022/03/31 00:31:12;;;;;;;;;;;;;;;17.33;58.25;98206.94;2107816;28;20014;-65
2022/03/31 00:32:13;;;;;;;;;;;;;;;17.34;58.25;98205.88;2107638;28;19912;-64
2022/03/31 00:33:13;;;;;;;;;;;;;;;17.33;58.17;98212.38;2107822;28;19919;-65
2022/03/31 00:34:14;;;;;;;;;;;;;;;17.32;58.16;98213.38;2098479;28;19958;-65
2022/03/31 00:35:14;;;;;;;;;;;;;;;17.32;58.13;98208.81;2098869;28;19962;-65
2022/03/31 00:36:15;;;;;;;;;;;;;;;17.31;58.27;98207.09;2099215;28;19912;-65
2022/03/31 00:37:15;;;;;;;;;;;;;;;17.31;58.21;98200.81;2099124;28;20260;-65
2022/03/31 00:38:15;;;;;;;;;;;;;;;17.31;58.12;98195.38;2099285;28;19916;-65
2022/03/31 00:39:34;;;;;;;;;;;;;;;17.30;58.38;98199.13;2099297;28;19912;-65
2022/03/31 00:40:34;;;;;;;;;;;;;;;17.30;58.24;98196.41;2099650;28;19920;-65
2022/03/31 00:41:35;;;;;;;;;;;;;;;17.30;58.43;98193.69;2099283;28;20375;-65
2022/03/31 00:42:40;;;;;;;;;;;;;;;17.29;58.37;98195.53;2098540;28;19912;-65
2022/03/31 00:43:40;;;;;;;;;;;;;;;17.29;58.22;98198.28;2098820;28;19913;-65
2022/03/31 00:44:40;;;;;;;;;;;;;;;17.29;58.26;98197.44;2099217;28;20007;-66
2022/03/31 00:45:47;;;;;;;;;;;;;;;17.29;58.30;98197.44;2099480;28;19924;-65
2022/03/31 00:46:51;;;;;;;;;;;;;;;17.28;58.18;98195.75;2099333;28;19962;-65
2022/03/31 00:47:52;;;;;;;;;;;;;;;17.28;58.23;98202.03;2099081;28;20007;-64
2022/03/31 00:48:52;;;;;;;;;;;;;;;17.27;58.38;98194.03;2085503;28;19920;-65
2022/03/31 00:49:53;;;;;;;;;;;;;;;17.28;58.29;98193.88;2082530;28;19924;-65
2022/03/31 00:50:53;;;;;;;;;;;;;;;17.28;58.44;98195.75;2082136;28;19925;-66
2022/03/31 00:51:54;;;;;;;;;;;;;;;17.27;58.40;98189.47;2082202;28;19970;-65
2022/03/31 00:52:55;;;;;;;;;;;;;;;17.27;58.56;98194.03;2080198;28;20147;-67
2022/03/31 00:53:56;;;;;;;;;;;;;;;17.27;58.24;98191.31;2082342;28;20255;-66
2022/03/31 00:54:56;;;;;;;;;;;;;;;17.28;58.47;98193.03;2080012;28;20685;-66
2022/03/31 00:55:59;;;;;;;;;;;;;;;17.27;58.49;98189.47;2085284;28;19921;-66
2022/03/31 00:57:02;;;;;;;;;;;;;;;17.27;58.40;98191.31;2082151;28;20669;-64
2022/03/31 00:58:03;;;;;;;;;;;;;;;17.27;58.48;98188.59;2082162;28;19951;-65
2022/03/31 00:59:04;;;;;;;;;;;;;;;17.27;58.37;98194.03;2079927;28;19913;-66
2022/03/31 01:00:07;;;;;;;;;;;;;;;17.27;58.36;98186.75;2082779;28;19987;-66
2022/03/31 01:01:08;;;;;;;;;;;;;;;17.27;58.32;98189.47;2080186;28;19970;-64
2022/03/31 01:02:09;;;;;;;;;;;;;;;17.28;58.24;98184.84;2079379;28;20214;-65
2022/03/31 01:03:09;;;;;;;;;;;;;;;17.27;58.19;98183.16;2079435;28;20019;-65
2022/03/31 01:04:09;;;;;;;;;;;;;;;17.28;58.19;98190.31;2079918;28;20307;-65
2022/03/31 01:05:10;;;;;;;;;;;;;;;17.26;58.24;98187.75;2081102;28;20438;-65
2022/03/31 01:06:10;;;;;;;;;;;;;;;17.26;58.39;98185.03;2082190;28;19912;-65
2022/03/31 01:07:11;;;;;;;;;;;;;;;17.26;58.50;98193.19;2080509;28;19967;-65
2022/03/31 01:08:11;;;;;;;;;;;;;;;17.25;58.29;98179.78;2080155;28;19939;-66
2022/03/31 01:09:12;;;;;;;;;;;;;;;17.26;58.15;98187.75;2080848;28;20342;-65
2022/03/31 01:10:14;;;;;;;;;;;;;;;17.26;58.30;98181.47;2083349;28;20570;-64
2022/03/31 01:11:14;;;;;;;;;;;;;;;17.25;58.16;98186.06;2081887;28;20397;-64
2022/03/31 01:12:16;;;;;;;;;;;;;;;17.25;58.43;98185.22;2081912;28;20139;-64
2022/03/31 01:13:16;;;;;;;;;;;;;;;17.26;58.15;98187.75;2081017;28;19921;-64
2022/03/31 01:14:16;;;;;;;;;;;;;;;17.24;58.14;98178.06;2080709;28;19921;-64
2022/03/31 01:15:18;;;;;;;;;;;;;;;17.24;58.21;98176.19;2079578;28;19998;-65
2022/03/31 01:16:18;;;;;;;;;;;;;;;17.24;58.25;98178.06;2080112;28;20333;-65
2022/03/31 01:17:19;;;;;;;;;;;;;;;17.24;58.32;98178.06;2080933;28;19982;-65
2022/03/31 01:18:19;;;;;;;;;;;;;;;17.24;58.37;98183.53;2083052;28;19913;-64
2022/03/31 01:19:19;;;;;;;;;;;;;;;17.25;58.14;98177.06;2080330;28;19918;-64
2022/03/31 01:20:20;;;;;;;;;;;;;;;17.24;58.32;98175.34;2083884;28;20003;-65
2022/03/31 01:21:21;;;;;;;;;;;;;;;17.24;58.36;98178.06;2077515;28;20455;-66
2022/03/31 01:22:24;;;;;;;;;;;;;;;17.23;58.18;98171.78;2081809;28;20292;-64
2022/03/31 01:23:24;;;;;;;;;;;;;;;17.23;58.45;98176.41;2079999;28;19920;-65
2022/03/31 01:24:24;;;;;;;;;;;;;;;17.22;58.33;98164.66;2081312;28;19948;-65
2022/03/31 01:25:25;;;;;;;;;;;;;;;17.23;58.33;98173.69;2080558;28;22896;-65
2022/03/31 01:26:25;;;;;;;;;;;;;;;17.23;58.28;98165.50;2082067;28;20296;-64
2022/03/31 01:27:29;;;;;;;;;;;;;;;17.23;58.25;98162.78;2080810;28;19963;-64
2022/03/31 01:28:29;;;;;;;;;;;;;;;17.23;58.51;98171.78;2080751;28;19924;-65
2022/03/31 01:29:29;;;;;;;;;;;;;;;17.24;58.55;98169.91;2080384;28;20461;-64
2022/03/31 01:30:29;;;;;;;;;;;;;;;17.23;58.50;98166.34;2078319;28;20185;-64
2022/03/31 01:31:30;;;;;;;;;;;;;;;17.24;58.68;98159.03;2076327;28;20471;-64
2022/03/31 01:32:33;;;;;;;;;;;;;;;17.24;58.57;98161.75;2078899;28;20007;-65
2022/03/31 01:33:34;;;;;;;;;;;;;;;17.23;58.41;98160.91;2078098;28;19916;-65
2022/03/31 01:34:34;;;;;;;;;;;;;;;17.23;58.27;98157.34;2080648;28;19929;-65
2022/03/31 01:35:34;;;;;;;;;;;;;;;17.22;58.23;98153.78;2078933;28;19926;-64
2022/03/31 01:36:35;;;;;;;;;;;;;;;17.23;58.34;98160.06;2079772;28;19955;-64
2022/03/31 01:37:36;;;;;;;;;;;;;;;17.22;58.46;98152.91;2082940;28;19924;-64
2022/03/31 01:38:36;;;;;;;;;;;;;;;17.23;58.55;98151.91;2079927;28;20005;-65
2022/03/31 01:39:36;;;;;;;;;;;;;;;17.22;58.50;98152.91;2077850;28;20291;-64
2022/03/31 01:40:37;;;;;;;;;;;;;;;17.22;58.36;98152.91;2080150;28;20204;-65
2022/03/31 01:41:37;;;;;;;;;;;;;;;17.21;58.46;98152.06;2079357;28;20588;-64
2022/03/31 01:42:38;;;;;;;;;;;;;;;17.20;58.44;98144.94;2081104;28;19920;-65
2022/03/31 01:43:38;;;;;;;;;;;;;;;17.19;58.28;98145.13;2081939;28;19924;-65
2022/03/31 01:44:38;;;;;;;;;;;;;;;17.19;58.50;98151.41;2081248;28;20298;-64
2022/03/31 01:45:39;;;;;;;;;;;;;;;17.19;58.41;98142.38;2078470;28;20346;-65
2022/03/31 01:46:39;;;;;;;;;;;;;;;17.20;58.65;98147.66;2078000;28;19912;-65
2022/03/31 01:47:39;;;;;;;;;;;;;;;17.19;58.56;98142.38;2081295;28;19994;-66
2022/03/31 01:48:40;;;;;;;;;;;;;;;17.19;58.68;98153.28;2083389;28;19920;-65
2022/03/31 01:49:40;;;;;;;;;;;;;;;17.18;58.73;98149.72;2081964;28;21338;-67
2022/03/31 01:50:41;;;;;;;;;;;;;;;17.19;58.71;98150.56;2080304;28;20011;-65
2022/03/31 01:51:41;;;;;;;;;;;;;;;17.19;58.58;98150.56;2079079;28;19921;-66
2022/03/31 01:52:41;;;;;;;;;;;;;;;17.19;58.70;98147.84;2082368;28;19925;-64
2022/03/31 01:53:42;;;;;;;;;;;;;;;17.18;58.65;98149.72;2082088;28;20026;-65
2022/03/31 01:54:42;;;;;;;;;;;;;;;17.18;58.40;98147.00;2080164;28;19927;-65
2022/03/31 01:55:42;;;;;;;;;;;;;;;17.18;58.55;98154.31;2080047;28;19921;-63
2022/03/31 01:56:43;;;;;;;;;;;;;;;17.18;58.45;98151.59;2082846;28;19959;-65
2022/03/31 01:57:43;;;;;;;;;;;;;;;17.18;58.25;98151.59;2080374;28;19955;-64
2022/03/31 01:58:44;;;;;;;;;;;;;;;17.19;58.23;98153.28;2082613;28;19928;-64
2022/03/31 01:59:44;;;;;;;;;;;;;;;17.19;58.29;98147.84;2079982;28;19920;-65
2022/03/31 02:00:45;;;;;;;;;;;;;;;17.19;58.49;98153.28;2080869;28;20572;-65
2022/03/31 02:01:45;;;;;;;;;;;;;;;17.18;58.39;98151.59;2078057;28;20037;-65
2022/03/31 02:02:45;;;;;;;;;;;;;;;17.19;58.25;98147.84;2081378;28;19920;-65
2022/03/31 02:03:46;;;;;;;;;;;;;;;17.17;58.13;98150.72;2079929;28;20003;-66
2022/03/31 02:04:47;;;;;;;;;;;;;;;17.18;58.14;98149.72;2079524;28;20043;-64
2022/03/31 02:05:47;;;;;;;;;;;;;;;17.18;58.18;98147.00;2079378;28;19925;-65
2022/03/31 02:06:47;;;;;;;;;;;;;;;17.19;58.13;98156.00;2078268;28;20053;-66
2022/03/31 02:07:52;;;;;;;;;;;;;;;17.18;58.32;98146.16;2078901;28;20003;-64
2022/03/31 02:08:52;;;;;;;;;;;;;;;17.18;58.16;98149.72;2078084;28;19969;-65
2022/03/31 02:09:52;;;;;;;;;;;;;;;17.17;58.27;98145.28;2084240;28;19924;-64
2022/03/31 02:10:53;;;;;;;;;;;;;;;17.18;58.31;98146.16;2080693;28;20120;-65
2022/03/31 02:11:53;;;;;;;;;;;;;;;17.17;58.23;98149.91;2081496;28;19921;-65
2022/03/31 02:12:54;;;;;;;;;;;;;;;17.17;58.26;98149.91;2080623;28;20003;-65
2022/03/31 02:13:54;;;;;;;;;;;;;;;17.17;58.44;98155.34;2082571;28;21187;-65
2022/03/31 02:14:55;;;;;;;;;;;;;;;17.17;58.33;98149.91;2082534;28;20180;-66
2022/03/31 02:15:55;;;;;;;;;;;;;;;17.16;58.43;98148.22;2084660;28;19946;-65
2022/03/31 02:16:55;;;;;;;;;;;;;;;17.16;58.53;98148.22;2078562;28;19929;-65
2022/03/31 02:17:56;;;;;;;;;;;;;;;17.15;58.50;98150.09;2081232;28;19972;-65
2022/03/31 02:18:56;;;;;;;;;;;;;;;17.16;58.54;98148.22;2078386;28;20690;-64
2022/03/31 02:19:57;;;;;;;;;;;;;;;17.15;58.57;98141.94;2081614;28;19932;-65
2022/03/31 02:20:57;;;;;;;;;;;;;;;17.16;58.70;98142.78;2079403;28;20453;-63
2022/03/31 02:21:57;;;;;;;;;;;;;;;17.16;58.52;98142.78;2081879;28;19925;-64
2022/03/31 02:23:01;;;;;;;;;;;;;;;17.15;58.61;98147.38;2079991;28;19916;-65
2022/03/31 02:24:01;;;;;;;;;;;;;;;17.14;58.55;98135.63;2083970;28;19925;-63
2022/03/31 02:25:02;;;;;;;;;;;;;;;17.16;58.35;98142.78;2082735;28;19935;-64
2022/03/31 02:26:02;;;;;;;;;;;;;;;17.16;58.40;98142.78;2080046;28;19952;-64
2022/03/31 02:27:04;;;;;;;;;;;;;;;17.16;58.41;98142.78;2078338;28;19946;-65
2022/03/31 02:28:04;;;;;;;;;;;;;;;17.18;58.52;98138.00;2080437;28;19979;-65
2022/03/31 02:29:05;;;;;;;;;;;;;;;17.19;58.22;98145.13;2076861;28;20477;-66
2022/03/31 02:30:06;;;;;;;;;;;;;;;17.19;58.48;98136.94;2081564;28;19925;-65
2022/03/31 02:31:07;;;;;;;;;;;;;;;17.19;58.24;98142.38;2077984;28;20099;-65
2022/03/31 02:32:08;;;;;;;;;;;;;;;17.20;58.13;98144.06;2081279;28;19916;-64
2022/03/31 02:33:09;;;;;;;;;;;;;;;17.21;58.16;98140.34;2080118;28;20302;-66
2022/03/31 02:34:09;;;;;;;;;;;;;;;17.20;58.17;98133.19;2086651;28;20078;-65
2022/03/31 02:35:11;;;;;;;;;;;;;;;17.21;58.31;98137.63;2091873;28;19916;-63
2022/03/31 02:36:11;;;;;;;;;;;;;;;17.21;58.09;98135.72;2090841;28;19915;-64
2022/03/31 02:37:11;;;;;;;;;;;;;;;17.21;58.20;98134.88;2092906;28;20952;-64
2022/03/31 02:38:12;;;;;;;;;;;;;;;17.20;58.04;98134.06;2081602;28;19927;-64
2022/03/31 02:39:12;;;;;;;;;;;;;;;17.21;58.19;98134.88;2082708;28;19916;-65
2022/03/31 02:40:13;;;;;;;;;;;;;;;17.20;58.10;98141.34;2089225;28;20031;-65
2022/03/31 02:41:13;;;;;;;;;;;;;;;17.21;58.05;98137.63;2090470;28;19911;-65
2022/03/31 02:42:14;;;;;;;;;;;;;;;17.21;58.01;98140.34;2095074;28;19922;-65
2022/03/31 02:43:15;;;;;;;;;;;;;;;17.20;57.97;98130.47;2090041;28;21002;-64
2022/03/31 02:44:16;;;;;;;;;;;;;;;17.22;58.03;98133.84;2091173;28;20265;-65
2022/03/31 02:45:19;;;;;;;;;;;;;;;17.21;57.95;98129.44;2088198;28;19999;-65
2022/03/31 02:46:20;;;;;;;;;;;;;;;17.21;58.28;98135.72;2084813;28;19974;-64
2022/03/31 02:47:20;;;;;;;;;;;;;;;17.20;58.18;98127.72;2090685;28;19965;-64
2022/03/31 02:48:20;;;;;;;;;;;;;;;17.20;58.06;98135.91;2091575;28;19927;-64
2022/03/31 02:49:21;;;;;;;;;;;;;;;17.20;58.10;98133.19;2091521;28;19916;-65
2022/03/31 02:50:21;;;;;;;;;;;;;;;17.20;58.04;98138.63;2090287;28;20278;-64
2022/03/31 02:51:22;;;;;;;;;;;;;;;17.18;57.86;98124.38;2091948;28;19912;-64
2022/03/31 02:52:22;;;;;;;;;;;;;;;17.19;58.08;98131.50;2089410;28;20197;-64
2022/03/31 02:56:00;;;;;;;;;;;;;;;17.18;58.30;98129.81;2090453;28;20157;-64
2022/03/31 02:57:01;;;;;;;;;;;;;;;17.17;58.07;98125.38;2090315;28;19994;-64
2022/03/31 02:58:02;;;;;;;;;;;;;;;17.19;58.03;98131.50;2091386;28;20647;-65
2022/03/31 02:59:04;;;;;;;;;;;;;;;17.17;58.04;98123.50;2086640;28;19920;-65
2022/03/31 03:00:05;;;;;;;;;;;;;;;17.18;58.17;98121.66;2088417;28;19916;-65
2022/03/31 03:01:05;;;;;;;;;;;;;;;17.18;58.04;98121.66;2087670;28;20439;-64
2022/03/31 03:02:06;;;;;;;;;;;;;;;17.18;57.86;98129.81;2092176;28;19993;-64
2022/03/31 03:03:08;;;;;;;;;;;;;;;17.18;58.22;98121.66;2089928;28;20512;-64
2022/03/31 03:04:08;;;;;;;;;;;;;;;17.18;58.12;98127.94;2093207;28;20401;-64
2022/03/31 03:05:08;;;;;;;;;;;;;;;17.18;57.94;98119.78;2081998;28;20362;-64
2022/03/31 03:06:09;;;;;;;;;;;;;;;17.18;57.91;98118.94;2081982;28;19946;-64
2022/03/31 03:07:09;;;;;;;;;;;;;;;17.18;58.17;98118.94;2089808;28;19916;-64
2022/03/31 03:08:10;;;;;;;;;;;;;;;17.19;57.66;98115.16;2091305;28;19996;-64
2022/03/31 03:09:10;;;;;;;;;;;;;;;17.18;58.04;98118.94;2089013;28;19920;-65
2022/03/31 03:10:10;;;;;;;;;;;;;;;17.18;58.04;98108.88;2094319;28;20527;-65
2022/03/31 03:11:11;;;;;;;;;;;;;;;17.17;57.87;98107.16;2088591;28;19926;-65
2022/03/31 03:12:11;;;;;;;;;;;;;;;17.17;57.82;98114.50;2088370;28;19920;-65
2022/03/31 03:13:14;;;;;;;;;;;;;;;17.17;58.06;98112.63;2089698;28;20217;-65
2022/03/31 03:14:14;;;;;;;;;;;;;;;17.17;57.96;98109.06;2083093;28;19985;-65
2022/03/31 03:15:14;;;;;;;;;;;;;;;17.16;58.07;98110.09;2079124;28;19966;-65
2022/03/31 03:16:15;;;;;;;;;;;;;;;17.16;57.84;98105.50;2092438;28;19959;-65
2022/03/31 03:17:15;;;;;;;;;;;;;;;17.16;57.98;98115.53;2096973;28;20434;-65
2022/03/31 03:18:18;;;;;;;;;;;;;;;17.16;57.88;98107.38;2099983;28;20359;-65
2022/03/31 03:19:18;;;;;;;;;;;;;;;17.14;57.73;98108.38;2105663;28;19919;-65
2022/03/31 03:20:18;;;;;;;;;;;;;;;17.14;57.92;98108.38;2107619;28;19918;-64
2022/03/31 03:21:19;;;;;;;;;;;;;;;17.14;57.94;98113.84;2108356;28;19912;-64
2022/03/31 03:22:20;;;;;;;;;;;;;;;17.14;57.91;98108.38;2108476;28;19954;-65
2022/03/31 03:23:20;;;;;;;;;;;;;;;17.13;57.72;98109.44;2108424;28;20044;-65
2022/03/31 03:24:22;;;;;;;;;;;;;;;17.13;57.85;98111.31;2100975;28;19913;-66
2022/03/31 03:25:23;;;;;;;;;;;;;;;17.14;57.98;98115.72;2099953;28;19923;-65
2022/03/31 03:26:24;;;;;;;;;;;;;;;17.13;57.85;98112.16;2090870;28;19999;-66
2022/03/31 03:27:24;;;;;;;;;;;;;;;17.13;58.21;98104.00;2094748;28;20314;-65
2022/03/31 03:28:24;;;;;;;;;;;;;;;17.13;58.13;98109.44;2108322;28;19951;-65
2022/03/31 03:29:24;;;;;;;;;;;;;;;17.13;57.92;98109.44;2108412;28;19912;-65
2022/03/31 03:30:25;;;;;;;;;;;;;;;17.14;58.06;98102.94;2108402;28;20375;-65
2022/03/31 03:31:25;;;;;;;;;;;;;;;17.14;58.02;98113.00;2108006;28;19981;-65
2022/03/31 03:32:25;;;;;;;;;;;;;;;17.14;57.93;98107.56;2108166;28;20291;-64
2022/03/31 03:33:26;;;;;;;;;;;;;;;17.13;57.96;98101.25;2108158;28;20278;-64
2022/03/31 03:34:26;;;;;;;;;;;;;;;17.13;57.79;98104.00;2105827;28;19924;-65
2022/03/31 03:35:26;;;;;;;;;;;;;;;17.13;57.78;98109.44;2104286;28;19912;-64
2022/03/31 03:36:27;;;;;;;;;;;;;;;17.14;57.89;98107.56;2098887;28;19913;-65
2022/03/31 03:37:27;;;;;;;;;;;;;;;17.13;57.75;98101.25;2099111;28;19916;-64
2022/03/31 03:38:27;;;;;;;;;;;;;;;17.13;57.96;98106.72;2108111;28;19965;-66
2022/03/31 03:39:28;;;;;;;;;;;;;;;17.12;57.86;98104.16;2108272;28;20440;-65
2022/03/31 03:40:29;;;;;;;;;;;;;;;17.13;57.90;98095.81;2107948;28;20393;-65
2022/03/31 03:41:29;;;;;;;;;;;;;;;17.12;57.85;98098.72;2108148;28;19912;-64
2022/03/31 03:42:30;;;;;;;;;;;;;;;17.12;57.97;98102.31;2108048;28;19919;-65
2022/03/31 03:43:31;;;;;;;;;;;;;;;17.11;58.02;98103.31;2108239;28;20388;-64
2022/03/31 03:44:31;;;;;;;;;;;;;;;17.11;57.65;98095.16;2099019;28;19917;-65
2022/03/31 03:45:31;;;;;;;;;;;;;;;17.11;58.00;98103.31;2099176;28;19939;-65
2022/03/31 03:46:32;;;;;;;;;;;;;;;17.10;57.77;98101.66;2099581;28;19917;-65
2022/03/31 03:47:32;;;;;;;;;;;;;;;17.10;57.68;98098.91;2099042;28;19919;-65
2022/03/31 03:48:33;;;;;;;;;;;;;;;17.10;57.90;98101.66;2107417;28;19912;-64
2022/03/31 03:49:33;;;;;;;;;;;;;;;17.10;57.85;98101.66;2108105;28;19919;-65
2022/03/31 03:50:34;;;;;;;;;;;;;;;17.09;57.73;98091.75;2107974;28;20581;-64
2022/03/31 03:51:34;;;;;;;;;;;;;;;17.10;57.72;98098.91;2108114;28;19978;-65
2022/03/31 03:52:35;;;;;;;;;;;;;;;17.10;57.61;98095.38;2108099;28;20355;-65
2022/03/31 03:53:35;;;;;;;;;;;;;;;17.09;57.71;98089.03;2107900;28;20045;-66
2022/03/31 03:54:35;;;;;;;;;;;;;;;17.10;57.72;98095.38;2108100;28;19912;-64
2022/03/31 03:55:36;;;;;;;;;;;;;;;17.09;57.77;98094.50;2108086;28;20270;-64
2022/03/31 03:56:37;;;;;;;;;;;;;;;17.10;57.78;98095.38;2107815;28;19994;-66
2022/03/31 03:57:38;;;;;;;;;;;;;;;17.10;57.81;98096.19;2108173;28;19916;-64
2022/03/31 03:58:38;;;;;;;;;;;;;;;17.09;57.65;98088.22;2107885;28;19912;-65
2022/03/31 03:59:39;;;;;;;;;;;;;;;17.09;57.69;98097.22;2108113;28;19912;-65
2022/03/31 04:00:39;;;;;;;;;;;;;;;17.11;58.01;98088.88;2107899;28;19919;-65
2022/03/31 04:01:39;;;;;;;;;;;;;;;17.10;57.77;98090.75;2107572;28;20337;-65
2022/03/31 04:02:41;;;;;;;;;;;;;;;17.10;57.97;98090.75;2107377;28;19916;-65
2022/03/31 04:03:41;;;;;;;;;;;;;;;17.10;57.68;98098.91;2107920;28;19991;-65
2022/03/31 04:04:42;;;;;;;;;;;;;;;17.09;57.84;98089.03;2090475;28;19952;-64
2022/03/31 04:05:42;;;;;;;;;;;;;;;17.10;57.68;98090.75;2090666;28;20431;-64
2022/03/31 04:06:42;;;;;;;;;;;;;;;17.10;57.79;98084.47;2108002;28;19975;-65
2022/03/31 04:07:43;;;;;;;;;;;;;;;17.10;57.68;98093.47;2102008;28;19913;-65
2022/03/31 04:08:43;;;;;;;;;;;;;;;17.10;57.85;98090.75;2099812;28;20082;-65
2022/03/31 04:09:44;;;;;;;;;;;;;;;17.09;57.62;98091.75;2099526;28;19973;-65
2022/03/31 04:10:44;;;;;;;;;;;;;;;17.09;57.92;98099.94;2100745;28;20011;-66
2022/03/31 04:11:44;;;;;;;;;;;;;;;17.10;57.90;98089.91;2108049;28;19912;-66
2022/03/31 04:12:45;;;;;;;;;;;;;;;17.09;57.78;98091.75;2107919;28;20017;-66
2022/03/31 04:13:46;;;;;;;;;;;;;;;17.09;57.72;98090.94;2107978;28;19944;-65
2022/03/31 04:14:46;;;;;;;;;;;;;;;17.09;57.87;98093.66;2108082;28;19919;-65
2022/03/31 04:15:47;;;;;;;;;;;;;;;17.08;57.60;98092.81;2104971;28;19998;-65
2022/03/31 04:16:47;;;;;;;;;;;;;;;17.08;57.75;98098.25;2099399;28;19939;-65
2022/03/31 04:17:48;;;;;;;;;;;;;;;17.07;57.78;98091.09;2100506;28;19935;-65
2022/03/31 04:18:48;;;;;;;;;;;;;;;17.08;57.83;98087.38;2099744;28;19912;-66
2022/03/31 04:19:48;;;;;;;;;;;;;;;17.07;57.65;98096.53;2099706;28;19912;-64
2022/03/31 04:20:48;;;;;;;;;;;;;;;17.08;57.60;98097.41;2099372;28;19912;-65
2022/03/31 04:21:49;;;;;;;;;;;;;;;17.07;57.70;98090.25;2101614;28;19912;-65
2022/03/31 04:22:49;;;;;;;;;;;;;;;17.06;57.68;98089.44;2105377;28;19912;-65
2022/03/31 04:23:49;;;;;;;;;;;;;;;17.07;57.56;98095.72;2101624;28;19912;-64
2022/03/31 04:24:50;;;;;;;;;;;;;;;17.06;57.74;98094.88;2107793;28;20286;-65
2022/03/31 04:25:50;;;;;;;;;;;;;;;17.06;57.71;98088.59;2105896;28;19912;-64
2022/03/31 04:26:50;;;;;;;;;;;;;;;17.06;57.94;98094.88;2101246;28;19913;-65
2022/03/31 04:27:51;;;;;;;;;;;;;;;17.06;57.67;98094.03;2105841;28;19912;-65
2022/03/31 04:28:51;;;;;;;;;;;;;;;17.06;57.81;98089.44;2082375;28;20416;-64
2022/03/31 04:29:51;;;;;;;;;;;;;;;17.06;57.83;98094.88;2082353;28;20055;-64
2022/03/31 04:30:52;;;;;;;;;;;;;;;17.06;57.73;98094.88;2099073;28;19916;-65
2022/03/31 04:31:52;;;;;;;;;;;;;;;17.07;57.63;98084.81;2107368;28;19919;-64
2022/03/31 04:32:52;;;;;;;;;;;;;;;17.06;57.85;98083.16;2107804;28;20389;-64
2022/03/31 04:33:52;;;;;;;;;;;;;;;17.08;57.83;98081.09;2107485;28;19956;-65
2022/03/31 04:34:53;;;;;;;;;;;;;;;17.08;57.83;98089.25;2107790;28;19912;-65
2022/03/31 04:35:53;;;;;;;;;;;;;;;17.10;57.87;98089.91;2107725;28;19919;-64
2022/03/31 04:36:53;;;;;;;;;;;;;;;17.10;57.70;98090.75;2098636;28;19962;-64
2022/03/31 04:37:54;;;;;;;;;;;;;;;17.10;57.79;98096.19;2098413;28;19991;-63
2022/03/31 04:38:54;;;;;;;;;;;;;;;17.10;57.92;98088.03;2107637;28;19918;-65
2022/03/31 04:39:54;;;;;;;;;;;;;;;17.10;57.83;98088.03;2107842;28;19935;-64
2022/03/31 04:40:55;;;;;;;;;;;;;;;17.12;57.70;98098.72;2107602;28;19912;-65
2022/03/31 04:41:55;;;;;;;;;;;;;;;17.11;57.80;98095.16;2107697;28;19912;-64
2022/03/31 04:42:55;;;;;;;;;;;;;;;17.12;57.82;98098.72;2107549;28;20350;-64
2022/03/31 04:43:56;;;;;;;;;;;;;;;17.11;57.82;98097.88;2107752;28;19912;-65
2022/03/31 04:44:56;;;;;;;;;;;;;;;17.11;57.92;98097.88;2098786;28;19916;-64
2022/03/31 04:45:56;;;;;;;;;;;;;;;17.12;57.68;98099.59;2103422;28;19959;-64
2022/03/31 04:46:57;;;;;;;;;;;;;;;17.12;57.82;98104.16;2108075;28;19998;-64
2022/03/31 04:47:57;;;;;;;;;;;;;;;17.11;57.98;98102.47;2107705;28;19972;-64
2022/03/31 04:48:58;;;;;;;;;;;;;;;17.11;57.83;98106.03;2107883;28;19916;-64
2022/03/31 04:49:58;;;;;;;;;;;;;;;17.12;57.69;98104.16;2098476;28;19916;-64
2022/03/31 04:50:58;;;;;;;;;;;;;;;17.12;57.82;98098.72;2090344;28;19935;-63
2022/03/31 04:51:59;;;;;;;;;;;;;;;17.12;57.79;98096.88;2098622;28;19919;-65
2022/03/31 04:52:59;;;;;;;;;;;;;;;17.11;57.89;98097.88;2107669;28;19912;-63
2022/03/31 04:54:00;;;;;;;;;;;;;;;17.12;57.66;98098.72;2098538;28;19932;-65
2022/03/31 04:55:00;;;;;;;;;;;;;;;17.12;57.84;98101.44;2098882;28;19912;-64
2022/03/31 04:56:01;;;;;;;;;;;;;;;17.11;57.79;98095.16;2107495;28;19912;-64
2022/03/31 04:57:01;;;;;;;;;;;;;;;17.12;57.69;98094.16;2098688;28;19931;-64
2022/03/31 04:58:01;;;;;;;;;;;;;;;17.12;57.80;98094.16;2087778;28;19917;-66
2022/03/31 04:59:02;;;;;;;;;;;;;;;17.12;57.65;98091.41;2094105;28;19919;-66
2022/03/31 05:00:03;;;;;;;;;;;;;;;17.12;57.53;98085.09;2105235;28;20310;-66
2022/03/31 05:01:05;;;;;;;;;;;;;;;17.11;57.63;98092.44;2105771;28;19923;-65
2022/03/31 05:02:08;;;;;;;;;;;;;;;17.11;57.74;98092.44;2085832;28;19973;-71
2022/03/31 05:03:08;;;;;;;;;;;;;;;17.12;57.92;98087.81;2078795;28;20031;-72
2022/03/31 05:04:10;;;;;;;;;;;;;;;17.12;57.93;98094.16;2093205;28;20588;-72
2022/03/31 05:05:12;;;;;;;;;;;;;;;17.13;57.92;98094.97;2071777;28;19920;-72
2022/03/31 05:06:13;;;;;;;;;;;;;;;17.21;57.74;98085.88;2075524;28;20480;-71
2022/03/31 05:07:13;;;;;;;;;;;;;;;17.29;57.33;98085.78;2091495;28;19904;-71
2022/03/31 05:08:14;;;;;;;;;;;;;;;17.31;57.45;98087.28;2091048;28;20040;-70
2022/03/31 05:09:14;;;;;;;;;;;;;;;17.31;57.30;98090.00;2091692;28;20936;-73
2022/03/31 05:10:14;;;;;;;;;;;;;;;17.30;57.83;98082.03;2091447;28;20332;-73
2022/03/31 05:11:15;;;;;;;;;;;;;;;17.29;57.72;98088.50;2083882;28;19920;-73
2022/03/31 05:12:15;;;;;;;;;;;;;;;17.28;57.73;98089.56;2082757;28;19979;-73
2022/03/31 05:13:15;;;;;;;;;;;;;;;17.27;57.92;98093.28;2091307;28;19959;-72
2022/03/31 05:14:16;;;;;;;;;;;;;;;17.27;57.78;98093.28;2090675;28;20244;-71
2022/03/31 05:15:16;;;;;;;;;;;;;;;17.25;57.83;98096.22;2081846;28;19921;-72
2022/03/31 05:16:16;;;;;;;;;;;;;;;17.24;58.15;98097.22;2082677;28;19920;-72
2022/03/31 05:17:17;;;;;;;;;;;;;;;17.23;58.16;98094.72;2081607;28;19920;-71
2022/03/31 05:18:18;;;;;;;;;;;;;;;17.23;58.13;98089.25;2081345;28;19921;-72
2022/03/31 05:19:18;;;;;;;;;;;;;;;17.22;58.08;98090.28;2082026;28;19979;-72